sensor_id;sensor_type;location;lat;lon;timestamp;P1;durP1;ratioP1;P2;durP2;ratioP2
72645;SDS011;60687;53.876;10.674;2023-11-22T00:00:24;8.10;;;3.50;;
72645;SDS011;60687;53.876;10.674;2023-11-22T00:10:26;8.48;;;4.07;;
72645;SDS011;60687;53.876;10.674;2023-11-22T00:20:30;8.27;;;3.80;;
72645;SDS011;60687;53.876;10.674;2023-11-22T00:30:34;8.60;;;3.70;;
72645;SDS011;60687;53.876;10.674;2023-11-22T00:40:37;8.57;;;3.57;;
72645;SDS011;60687;53.876;10.674;2023-11-22T00:50:40;8.13;;;3.83;;
72645;SDS011;60687;53.876;10.674;2023-11-22T01:00:44;10.37;;;4.23;;
72645;SDS011;60687;53.876;10.674;2023-11-22T01:10:46;9.17;;;4.40;;
72645;SDS011;60687;53.876;10.674;2023-11-22T01:20:50;9.70;;;4.63;;
72645;SDS011;60687;53.876;10.674;2023-11-22T01:30:53;8.07;;;4.10;;
72645;SDS011;60687;53.876;10.674;2023-11-22T01:40:57;8.53;;;4.20;;
72645;SDS011;60687;53.876;10.674;2023-11-22T01:51:02;8.45;;;3.63;;
72645;SDS011;60687;53.876;10.674;2023-11-22T02:01:07;9.02;;;3.60;;
72645;SDS011;60687;53.876;10.674;2023-11-22T02:11:12;7.67;;;3.47;;
72645;SDS011;60687;53.876;10.674;2023-11-22T02:21:24;8.40;;;3.40;;
72645;SDS011;60687;53.876;10.674;2023-11-22T02:31:27;8.20;;;3.85;;
72645;SDS011;60687;53.876;10.674;2023-11-22T02:41:30;7.43;;;2.97;;
72645;SDS011;60687;53.876;10.674;2023-11-22T02:51:34;7.50;;;2.73;;
72645;SDS011;60687;53.876;10.674;2023-11-22T03:01:37;8.93;;;2.95;;
72645;SDS011;60687;53.876;10.674;2023-11-22T03:11:44;8.27;;;2.73;;
72645;SDS011;60687;53.876;10.674;2023-11-22T03:21:47;8.00;;;2.50;;
72645;SDS011;60687;53.876;10.674;2023-11-22T03:31:51;7.72;;;2.92;;
72645;SDS011;60687;53.876;10.674;2023-11-22T03:41:53;7.03;;;2.95;;
72645;SDS011;60687;53.876;10.674;2023-11-22T03:51:57;7.57;;;3.30;;
72645;SDS011;60687;53.876;10.674;2023-11-22T04:01:59;7.70;;;3.00;;
72645;SDS011;60687;53.876;10.674;2023-11-22T04:12:04;7.03;;;3.17;;
72645;SDS011;60687;53.876;10.674;2023-11-22T04:22:07;7.03;;;3.00;;
72645;SDS011;60687;53.876;10.674;2023-11-22T04:32:10;7.27;;;3.27;;
72645;SDS011;60687;53.876;10.674;2023-11-22T04:42:13;6.60;;;2.83;;
72645;SDS011;60687;53.876;10.674;2023-11-22T04:52:17;7.37;;;3.10;;
72645;SDS011;60687;53.876;10.674;2023-11-22T05:02:19;7.13;;;3.13;;
72645;SDS011;60687;53.876;10.674;2023-11-22T05:12:23;7.13;;;3.75;;
72645;SDS011;60687;53.876;10.674;2023-11-22T05:22:26;7.40;;;3.65;;
72645;SDS011;60687;53.876;10.674;2023-11-22T05:32:30;8.67;;;3.90;;
72645;SDS011;60687;53.876;10.674;2023-11-22T05:42:32;10.03;;;5.30;;
72645;SDS011;60687;53.876;10.674;2023-11-22T05:52:37;11.15;;;5.47;;
72645;SDS011;60687;53.876;10.674;2023-11-22T06:02:39;10.63;;;5.33;;
72645;SDS011;60687;53.876;10.674;2023-11-22T06:12:43;8.93;;;4.40;;
72645;SDS011;60687;53.876;10.674;2023-11-22T06:22:46;10.15;;;5.00;;
72645;SDS011;60687;53.876;10.674;2023-11-22T06:32:50;8.60;;;4.03;;
72645;SDS011;60687;53.876;10.674;2023-11-22T06:42:52;9.63;;;4.77;;
72645;SDS011;60687;53.876;10.674;2023-11-22T06:52:56;11.23;;;5.45;;
72645;SDS011;60687;53.876;10.674;2023-11-22T07:02:59;11.05;;;5.97;;
72645;SDS011;60687;53.876;10.674;2023-11-22T07:13:03;11.73;;;6.57;;
72645;SDS011;60687;53.876;10.674;2023-11-22T07:23:06;11.17;;;6.23;;
72645;SDS011;60687;53.876;10.674;2023-11-22T07:33:16;12.30;;;6.38;;
72645;SDS011;60687;53.876;10.674;2023-11-22T07:43:20;12.77;;;6.63;;
72645;SDS011;60687;53.876;10.674;2023-11-22T07:53:25;13.80;;;6.60;;
72645;SDS011;60687;53.876;10.674;2023-11-22T08:03:29;13.75;;;6.32;;
72645;SDS011;60687;53.876;10.674;2023-11-22T08:13:33;15.07;;;8.20;;
72645;SDS011;60687;53.876;10.674;2023-11-22T08:23:37;15.77;;;7.40;;
72645;SDS011;60687;53.876;10.674;2023-11-22T08:33:41;14.27;;;7.53;;
72645;SDS011;60687;53.876;10.674;2023-11-22T08:43:43;14.98;;;7.78;;
72645;SDS011;60687;53.876;10.674;2023-11-22T08:53:50;11.73;;;6.73;;
72645;SDS011;60687;53.876;10.674;2023-11-22T09:03:53;13.67;;;7.17;;
72645;SDS011;60687;53.876;10.674;2023-11-22T09:13:56;15.05;;;6.90;;
72645;SDS011;60687;53.876;10.674;2023-11-22T09:24:24;12.70;;;6.57;;
72645;SDS011;60687;53.876;10.674;2023-11-22T09:34:29;13.17;;;6.57;;
72645;SDS011;60687;53.876;10.674;2023-11-22T09:44:31;12.20;;;6.35;;
72645;SDS011;60687;53.876;10.674;2023-11-22T09:54:36;12.87;;;6.30;;
72645;SDS011;60687;53.876;10.674;2023-11-22T10:04:41;11.27;;;5.97;;
72645;SDS011;60687;53.876;10.674;2023-11-22T10:14:45;11.63;;;5.65;;
72645;SDS011;60687;53.876;10.674;2023-11-22T10:24:48;11.60;;;6.18;;
72645;SDS011;60687;53.876;10.674;2023-11-22T10:34:52;11.53;;;5.37;;
72645;SDS011;60687;53.876;10.674;2023-11-22T10:44:55;11.37;;;5.50;;
72645;SDS011;60687;53.876;10.674;2023-11-22T10:55:02;10.30;;;4.60;;
72645;SDS011;60687;53.876;10.674;2023-11-22T11:05:08;9.43;;;4.73;;
72645;SDS011;60687;53.876;10.674;2023-11-22T11:15:19;8.73;;;4.00;;
72645;SDS011;60687;53.876;10.674;2023-11-22T11:25:25;9.30;;;4.00;;
72645;SDS011;60687;53.876;10.674;2023-11-22T11:35:38;7.93;;;3.43;;
72645;SDS011;60687;53.876;10.674;2023-11-22T11:45:41;11.27;;;3.90;;
72645;SDS011;60687;53.876;10.674;2023-11-22T11:55:48;8.65;;;3.95;;
72645;SDS011;60687;53.876;10.674;2023-11-22T12:05:54;10.68;;;3.80;;
72645;SDS011;60687;53.876;10.674;2023-11-22T12:15:58;8.03;;;3.30;;
72645;SDS011;60687;53.876;10.674;2023-11-22T12:26:03;10.13;;;3.30;;
72645;SDS011;60687;53.876;10.674;2023-11-22T12:36:07;7.82;;;3.47;;
72645;SDS011;60687;53.876;10.674;2023-11-22T12:46:11;8.00;;;3.50;;
72645;SDS011;60687;53.876;10.674;2023-11-22T12:56:18;7.07;;;2.97;;
72645;SDS011;60687;53.876;10.674;2023-11-22T13:06:21;7.38;;;2.90;;
72645;SDS011;60687;53.876;10.674;2023-11-22T13:16:31;7.27;;;2.73;;
72645;SDS011;60687;53.876;10.674;2023-11-22T13:26:35;8.43;;;3.53;;
72645;SDS011;60687;53.876;10.674;2023-11-22T13:36:39;6.75;;;3.00;;
72645;SDS011;60687;53.876;10.674;2023-11-22T13:46:41;10.68;;;3.25;;
72645;SDS011;60687;53.876;10.674;2023-11-22T13:56:45;8.87;;;3.20;;
72645;SDS011;60687;53.876;10.674;2023-11-22T14:06:48;7.57;;;3.27;;
72645;SDS011;60687;53.876;10.674;2023-11-22T14:16:53;8.10;;;2.72;;
72645;SDS011;60687;53.876;10.674;2023-11-22T14:26:55;8.43;;;2.80;;
72645;SDS011;60687;53.876;10.674;2023-11-22T14:37:02;9.73;;;2.40;;
72645;SDS011;60687;53.876;10.674;2023-11-22T14:47:05;6.68;;;2.70;;
72645;SDS011;60687;53.876;10.674;2023-11-22T14:57:18;6.67;;;2.67;;
72645;SDS011;60687;53.876;10.674;2023-11-22T15:07:20;10.13;;;3.20;;
72645;SDS011;60687;53.876;10.674;2023-11-22T15:17:24;6.72;;;3.22;;
72645;SDS011;60687;53.876;10.674;2023-11-22T15:27:28;6.82;;;2.85;;
72645;SDS011;60687;53.876;10.674;2023-11-22T15:37:41;7.27;;;3.20;;
72645;SDS011;60687;53.876;10.674;2023-11-22T15:47:44;6.50;;;2.37;;
72645;SDS011;60687;53.876;10.674;2023-11-22T15:57:49;5.97;;;2.42;;
72645;SDS011;60687;53.876;10.674;2023-11-22T16:08:04;5.87;;;2.40;;
72645;SDS011;60687;53.876;10.674;2023-11-22T16:18:09;6.40;;;2.60;;
72645;SDS011;60687;53.876;10.674;2023-11-22T16:28:20;6.78;;;2.63;;
72645;SDS011;60687;53.876;10.674;2023-11-22T16:38:24;6.67;;;2.67;;
72645;SDS011;60687;53.876;10.674;2023-11-22T16:48:27;7.40;;;3.27;;
72645;SDS011;60687;53.876;10.674;2023-11-22T16:58:31;7.15;;;3.20;;
72645;SDS011;60687;53.876;10.674;2023-11-22T17:08:33;8.10;;;3.35;;
72645;SDS011;60687;53.876;10.674;2023-11-22T17:18:38;7.43;;;3.40;;
72645;SDS011;60687;53.876;10.674;2023-11-22T17:28:41;7.33;;;3.10;;
72645;SDS011;60687;53.876;10.674;2023-11-22T17:38:44;7.63;;;3.20;;
72645;SDS011;60687;53.876;10.674;2023-11-22T17:48:47;6.77;;;3.27;;
72645;SDS011;60687;53.876;10.674;2023-11-22T17:58:57;7.27;;;3.13;;
72645;SDS011;60687;53.876;10.674;2023-11-22T18:08:59;8.52;;;3.28;;
72645;SDS011;60687;53.876;10.674;2023-11-22T18:19:06;8.83;;;3.90;;
72645;SDS011;60687;53.876;10.674;2023-11-22T18:29:14;8.10;;;3.60;;
72645;SDS011;60687;53.876;10.674;2023-11-22T18:39:26;8.52;;;3.47;;
72645;SDS011;60687;53.876;10.674;2023-11-22T18:49:29;9.02;;;4.60;;
72645;SDS011;60687;53.876;10.674;2023-11-22T18:59:32;7.37;;;3.43;;
72645;SDS011;60687;53.876;10.674;2023-11-22T19:09:38;8.33;;;3.90;;
72645;SDS011;60687;53.876;10.674;2023-11-22T19:19:43;9.55;;;3.40;;
72645;SDS011;60687;53.876;10.674;2023-11-22T19:40:11;9.00;;;4.10;;
72645;SDS011;60687;53.876;10.674;2023-11-22T19:50:14;7.93;;;3.90;;
72645;SDS011;60687;53.876;10.674;2023-11-22T20:00:19;10.10;;;4.47;;
72645;SDS011;60687;53.876;10.674;2023-11-22T20:10:25;9.00;;;3.80;;
72645;SDS011;60687;53.876;10.674;2023-11-22T20:20:29;8.52;;;4.10;;
72645;SDS011;60687;53.876;10.674;2023-11-22T20:30:33;8.88;;;4.43;;
72645;SDS011;60687;53.876;10.674;2023-11-22T20:40:42;9.07;;;4.73;;
72645;SDS011;60687;53.876;10.674;2023-11-22T20:50:44;9.40;;;4.60;;
72645;SDS011;60687;53.876;10.674;2023-11-22T21:00:49;8.82;;;4.00;;
72645;SDS011;60687;53.876;10.674;2023-11-22T21:10:53;9.40;;;4.57;;
72645;SDS011;60687;53.876;10.674;2023-11-22T21:21:00;9.17;;;4.23;;
72645;SDS011;60687;53.876;10.674;2023-11-22T21:31:02;9.10;;;4.15;;
72645;SDS011;60687;53.876;10.674;2023-11-22T21:41:06;8.33;;;4.00;;
72645;SDS011;60687;53.876;10.674;2023-11-22T21:51:11;8.90;;;3.73;;
72645;SDS011;60687;53.876;10.674;2023-11-22T22:01:15;10.95;;;4.80;;
72645;SDS011;60687;53.876;10.674;2023-11-22T22:11:18;10.43;;;5.07;;
72645;SDS011;60687;53.876;10.674;2023-11-22T22:21:22;11.90;;;4.93;;
72645;SDS011;60687;53.876;10.674;2023-11-22T22:31:25;14.10;;;6.97;;
72645;SDS011;60687;53.876;10.674;2023-11-22T22:41:29;15.70;;;6.40;;
72645;SDS011;60687;53.876;10.674;2023-11-22T22:51:31;15.90;;;6.67;;
72645;SDS011;60687;53.876;10.674;2023-11-22T23:01:35;18.83;;;8.93;;
72645;SDS011;60687;53.876;10.674;2023-11-22T23:11:38;18.50;;;8.95;;
72645;SDS011;60687;53.876;10.674;2023-11-22T23:21:44;20.27;;;9.13;;
72645;SDS011;60687;53.876;10.674;2023-11-22T23:31:48;19.43;;;8.20;;
72645;SDS011;60687;53.876;10.674;2023-11-22T23:41:52;17.48;;;8.85;;
72645;SDS011;60687;53.876;10.674;2023-11-22T23:51:55;19.80;;;9.07;;
